Terminal Aerodrome Forecast
Issued by NWS

Home | Current Version | Previous Version | Text Only | Print | Product List | Glossary On
Versions: 1 2 3 4 5 6 7 8 9 10 11 12 13 14 15
000
FTUS42 KMLB 231746
TAFISM
TAF
KISM 231746Z 2318/2418 18008KT P6SM VCSH SCT025 OVC100
      TEMPO 2319/2323 3SM SHRA BKN012
     FM240000 35006KT P6SM VCSH BKN015
     FM240600 34005KT 6SM BR BKN008 OVC010
     FM241500 36007KT P6SM VCSH BKN015=

USA.gov is the U.S. government's official web portal to all federal, state and local government web resources and services.